createdAt,value
2022-07-29T00:01:00.715Z,1.50
2022-07-29T00:03:29.362Z,1.67
2022-07-29T00:06:02.581Z,1.50
2022-07-29T00:08:31.108Z,1.43
2022-07-29T00:10:59.643Z,1.23
2022-07-29T00:13:32.338Z,1.10
2022-07-29T00:16:03.612Z,1.87
2022-07-29T00:18:33.491Z,1.27
2022-07-29T00:21:10.171Z,1.27
2022-07-29T00:23:38.744Z,1.43
2022-07-29T00:26:09.202Z,1.40
2022-07-29T00:28:37.882Z,1.30
2022-07-29T00:31:08.842Z,1.43
2022-07-29T00:33:37.407Z,1.30
2022-07-29T00:36:09.267Z,1.30
2022-07-29T00:38:42.782Z,1.30
2022-07-29T00:41:12.667Z,1.47
2022-07-29T00:43:41.925Z,1.30
2022-07-29T00:46:13.502Z,1.50
2022-07-29T00:48:44.631Z,1.73
2022-07-29T00:51:15.302Z,1.43
2022-07-29T00:53:46.424Z,1.50
2022-07-29T00:56:16.414Z,1.47
2022-07-29T00:58:44.991Z,1.50
2022-07-29T01:01:13.577Z,1.30
2022-07-29T01:03:42.121Z,1.57
2022-07-29T01:06:10.632Z,1.83
2022-07-29T01:08:41.130Z,1.70
2022-07-29T01:11:09.647Z,1.30
2022-07-29T01:13:38.191Z,1.33
2022-07-29T01:16:07.573Z,1.57
2022-07-29T01:18:37.583Z,1.47
2022-07-29T01:21:21.069Z,1.70
2022-07-29T01:23:59.452Z,1.57
2022-07-29T01:26:38.497Z,1.50
2022-07-29T01:29:11.320Z,1.70
2022-07-29T01:31:59.211Z,1.40
2022-07-29T01:34:33.803Z,1.90
2022-07-29T01:37:04.971Z,1.60
2022-07-29T01:39:34.079Z,1.50
2022-07-29T01:42:05.088Z,1.77
2022-07-29T01:44:36.054Z,1.60
2022-07-29T01:47:05.425Z,1.70
2022-07-29T01:49:40.793Z,1.70
2022-07-29T01:52:11.121Z,1.40
2022-07-29T01:54:40.348Z,1.50
2022-07-29T01:57:10.129Z,1.87
2022-07-29T01:59:46.108Z,1.83
2022-07-29T02:02:14.862Z,1.40
2022-07-29T02:04:44.033Z,1.60
2022-07-29T02:07:14.140Z,1.53
2022-07-29T02:09:42.759Z,1.80
2022-07-29T02:12:11.274Z,1.43
2022-07-29T02:14:40.468Z,1.87
2022-07-29T02:17:10.423Z,1.80
2022-07-29T02:19:38.874Z,1.77
2022-07-29T02:22:07.441Z,1.63
2022-07-29T02:24:36.072Z,1.73
2022-07-29T02:27:04.582Z,1.80
2022-07-29T02:29:33.227Z,1.63
2022-07-29T02:32:01.806Z,1.80
2022-07-29T02:34:34.902Z,1.47
2022-07-29T02:37:05.898Z,1.60
2022-07-29T02:39:34.396Z,1.70
2022-07-29T02:42:04.362Z,1.70
2022-07-29T02:44:34.773Z,1.80
2022-07-29T02:47:05.618Z,1.70
2022-07-29T02:49:39.480Z,1.77
2022-07-29T02:52:09.883Z,1.60
2022-07-29T02:54:40.712Z,1.63
2022-07-29T02:57:11.666Z,1.50
2022-07-29T02:59:40.308Z,2.00
2022-07-29T03:02:08.789Z,1.60
2022-07-29T03:04:43.802Z,1.83
2022-07-29T03:07:32.373Z,1.60
2022-07-29T03:10:00.988Z,2.10
2022-07-29T03:12:29.482Z,1.80
2022-07-29T03:14:58.184Z,1.80
2022-07-29T03:17:26.761Z,1.63
2022-07-29T03:19:59.579Z,1.60
2022-07-29T03:22:28.252Z,1.80
2022-07-29T03:24:57.057Z,1.70
2022-07-29T03:27:28.349Z,2.20
2022-07-29T03:29:58.128Z,1.70
2022-07-29T03:32:26.852Z,1.90
2022-07-29T03:34:58.260Z,2.00
2022-07-29T03:37:33.565Z,1.90
2022-07-29T03:40:02.227Z,1.90
2022-07-29T03:42:34.319Z,2.00
2022-07-29T03:45:03.695Z,2.50
2022-07-29T03:47:49.761Z,1.90
2022-07-29T03:50:20.595Z,2.30
2022-07-29T03:52:51.771Z,2.17
2022-07-29T03:55:23.069Z,2.00
2022-07-29T03:57:51.858Z,2.23
2022-07-29T04:00:24.689Z,1.73
2022-07-29T04:02:53.147Z,2.33
2022-07-29T04:05:25.987Z,2.40
2022-07-29T04:07:57.778Z,2.10
2022-07-29T04:10:30.528Z,2.40
2022-07-29T04:13:03.496Z,2.40
2022-07-29T04:15:32.108Z,2.93
2022-07-29T04:18:03.671Z,2.80
2022-07-29T04:20:33.810Z,1.80
2022-07-29T04:23:02.299Z,2.10
2022-07-29T04:25:30.932Z,2.50
2022-07-29T04:28:05.241Z,2.40
2022-07-29T04:30:35.023Z,2.30
2022-07-29T04:33:03.777Z,2.10
2022-07-29T04:35:38.627Z,2.50
2022-07-29T04:38:15.915Z,2.50
2022-07-29T04:40:47.120Z,2.10
2022-07-29T04:43:16.064Z,2.30
2022-07-29T04:45:44.625Z,2.40
2022-07-29T04:48:25.362Z,2.33
2022-07-29T04:50:58.427Z,2.43
2022-07-29T04:53:27.138Z,2.13
2022-07-29T04:56:04.954Z,2.40
2022-07-29T04:58:37.035Z,2.30
2022-07-29T05:01:05.638Z,2.40
2022-07-29T05:03:34.403Z,2.57
2022-07-29T05:06:04.353Z,2.30
2022-07-29T05:08:38.699Z,2.37
2022-07-29T05:11:11.509Z,2.50
2022-07-29T05:13:46.179Z,2.40
2022-07-29T05:16:15.657Z,2.47
2022-07-29T05:18:44.456Z,2.50
2022-07-29T05:21:14.294Z,2.70
2022-07-29T05:23:42.796Z,2.60
2022-07-29T05:26:13.392Z,2.47
2022-07-29T05:28:44.911Z,2.03
2022-07-29T05:31:15.680Z,2.17
2022-07-29T05:33:46.733Z,2.60
2022-07-29T05:36:16.674Z,2.40
2022-07-29T05:38:45.421Z,2.87
2022-07-29T05:41:13.901Z,2.20
2022-07-29T05:43:45.621Z,2.30
2022-07-29T05:46:15.082Z,2.10
2022-07-29T05:48:43.802Z,2.33
2022-07-29T05:51:12.298Z,2.27
2022-07-29T05:53:42.364Z,2.10
2022-07-29T05:56:10.971Z,2.10
2022-07-29T05:58:39.419Z,2.00
2022-07-29T06:01:11.216Z,2.10
2022-07-29T06:03:39.951Z,2.30
2022-07-29T06:06:08.550Z,2.00
2022-07-29T06:08:37.375Z,2.10
2022-07-29T06:11:08.149Z,2.00
2022-07-29T06:13:39.490Z,2.13
2022-07-29T06:16:14.978Z,1.93
2022-07-29T06:18:44.440Z,2.20
2022-07-29T06:21:12.921Z,2.10
2022-07-29T06:23:44.041Z,2.10
2022-07-29T06:26:14.567Z,1.93
2022-07-29T06:28:43.259Z,2.10
2022-07-29T06:31:12.053Z,2.17
2022-07-29T06:33:40.781Z,2.20
2022-07-29T06:36:09.575Z,1.80
2022-07-29T06:38:42.946Z,2.00
2022-07-29T06:41:18.287Z,1.97
2022-07-29T06:43:51.718Z,2.10
2022-07-29T06:46:23.942Z,2.07
2022-07-29T06:48:53.369Z,2.20
2022-07-29T06:51:24.731Z,2.57
2022-07-29T06:54:00.217Z,2.13
2022-07-29T06:56:39.073Z,1.93
2022-07-29T06:59:11.951Z,2.17
2022-07-29T07:01:45.214Z,2.07
2022-07-29T07:04:15.982Z,2.10
2022-07-29T07:06:45.649Z,3.30
2022-07-29T07:09:17.952Z,2.30
2022-07-29T07:11:49.669Z,2.37
2022-07-29T07:14:18.911Z,1.90
2022-07-29T07:16:47.682Z,2.27
2022-07-29T07:19:16.551Z,2.20
2022-07-29T07:21:45.192Z,2.30
2022-07-29T07:24:13.863Z,2.67
2022-07-29T07:26:42.746Z,2.00
2022-07-29T07:29:15.491Z,2.57
2022-07-29T07:31:44.459Z,2.53
2022-07-29T07:34:15.276Z,2.90
2022-07-29T07:36:44.056Z,2.37
2022-07-29T07:39:15.320Z,2.50
2022-07-29T07:41:46.957Z,2.50
2022-07-29T07:44:19.726Z,2.73
2022-07-29T07:46:48.484Z,2.70
2022-07-29T07:49:17.879Z,3.03
2022-07-29T07:51:50.828Z,2.80
2022-07-29T07:54:20.587Z,2.40
2022-07-29T07:56:53.056Z,2.60
2022-07-29T07:59:30.213Z,2.90
2022-07-29T08:01:59.011Z,2.77
2022-07-29T08:04:29.107Z,2.30
2022-07-29T08:07:13.574Z,2.90
2022-07-29T08:09:49.120Z,2.70
2022-07-29T08:12:17.921Z,2.53
2022-07-29T08:14:48.538Z,2.43
2022-07-29T08:17:17.300Z,2.90
2022-07-29T08:19:45.756Z,2.50
2022-07-29T08:22:18.897Z,2.60
2022-07-29T08:24:56.682Z,2.77
2022-07-29T08:27:42.874Z,2.70
2022-07-29T08:30:14.022Z,2.40
2022-07-29T08:32:58.149Z,2.47
2022-07-29T08:35:35.616Z,2.40
2022-07-29T08:38:05.711Z,2.30
2022-07-29T08:40:35.421Z,2.67
2022-07-29T08:43:07.944Z,2.83
2022-07-29T08:45:57.379Z,2.43
2022-07-29T08:48:29.227Z,2.70
2022-07-29T08:51:00.228Z,2.57
2022-07-29T08:53:31.200Z,2.30
2022-07-29T08:55:59.755Z,2.67
2022-07-29T08:58:36.578Z,2.50
2022-07-29T09:01:07.764Z,2.40
2022-07-29T09:03:44.535Z,2.40
2022-07-29T09:06:17.574Z,2.70
2022-07-29T09:08:46.326Z,2.60
2022-07-29T09:11:20.274Z,2.80
2022-07-29T09:13:50.693Z,2.57
2022-07-29T09:16:43.701Z,2.80
2022-07-29T09:19:13.866Z,2.70
2022-07-29T09:22:03.550Z,2.87
2022-07-29T09:24:50.541Z,3.00
2022-07-29T09:30:06.386Z,2.57
2022-07-29T09:32:38.673Z,3.10
2022-07-29T09:35:18.789Z,2.70
2022-07-29T09:37:47.394Z,2.30
2022-07-29T09:40:16.936Z,2.87
2022-07-29T09:42:47.303Z,2.97
2022-07-29T09:45:16.126Z,3.17
2022-07-29T09:47:50.269Z,2.67
2022-07-29T09:50:20.765Z,2.83
2022-07-29T09:52:49.818Z,2.83
2022-07-29T09:55:19.814Z,2.60
2022-07-29T09:57:51.592Z,2.67
2022-07-29T10:00:29.447Z,2.50
2022-07-29T10:03:02.076Z,2.00
2022-07-29T10:05:36.173Z,2.73
2022-07-29T10:08:05.706Z,2.50
2022-07-29T10:10:34.877Z,2.47
2022-07-29T10:13:08.065Z,2.83
2022-07-29T10:15:43.016Z,3.03
2022-07-29T10:18:12.959Z,2.80
2022-07-29T10:20:41.539Z,2.40
2022-07-29T10:23:11.677Z,2.57
2022-07-29T10:25:46.343Z,2.40
2022-07-29T10:28:16.739Z,2.73
2022-07-29T10:30:45.532Z,2.80
2022-07-29T10:33:18.079Z,2.63
2022-07-29T10:36:09.354Z,2.67
2022-07-29T10:38:45.724Z,2.43
2022-07-29T10:41:32.327Z,2.30
2022-07-29T10:44:17.164Z,2.53
2022-07-29T10:46:46.457Z,2.53
2022-07-29T10:49:17.279Z,2.57
2022-07-29T10:52:00.020Z,2.63
2022-07-29T10:54:48.824Z,2.20
2022-07-29T10:57:21.725Z,2.10
2022-07-29T10:59:57.919Z,1.90
2022-07-29T11:02:46.161Z,1.83
2022-07-29T11:05:18.492Z,1.83
2022-07-29T11:08:05.919Z,1.80
2022-07-29T11:10:35.215Z,1.40
2022-07-29T11:13:03.906Z,1.93
2022-07-29T11:15:32.514Z,1.73
2022-07-29T11:18:21.666Z,1.40
2022-07-29T11:20:57.210Z,1.63
2022-07-29T11:23:34.089Z,1.60
2022-07-29T11:26:27.784Z,1.63
2022-07-29T11:29:01.628Z,1.97
2022-07-29T11:31:36.236Z,1.90
2022-07-29T11:34:20.888Z,2.30
2022-07-29T11:37:19.892Z,1.93
2022-07-29T11:39:48.982Z,2.27
2022-07-29T11:42:41.745Z,1.87
2022-07-29T11:47:57.798Z,2.00
2022-07-29T11:50:34.596Z,1.90
2022-07-29T11:53:13.307Z,1.80
2022-07-29T11:55:51.571Z,2.10
2022-07-29T11:58:24.889Z,1.70
2022-07-29T12:00:56.329Z,1.80
2022-07-29T12:03:35.249Z,1.70
2022-07-29T12:06:07.567Z,1.77
2022-07-29T12:08:45.356Z,1.27
2022-07-29T12:11:22.716Z,1.53
2022-07-29T12:13:55.248Z,1.53
2022-07-29T12:16:29.314Z,1.80
2022-07-29T12:18:59.649Z,1.50
2022-07-29T12:21:30.122Z,1.92
2022-07-29T12:24:08.870Z,2.15
2022-07-29T12:26:38.347Z,1.88
2022-07-29T12:29:15.493Z,1.70
2022-07-29T12:31:48.868Z,1.60
2022-07-29T12:34:21.208Z,1.52
2022-07-29T12:36:54.719Z,2.10
2022-07-29T12:39:32.522Z,1.70
2022-07-29T12:42:03.854Z,1.85
2022-07-29T12:44:56.900Z,1.67
2022-07-29T12:47:33.078Z,1.60
2022-07-29T12:50:15.460Z,1.67
2022-07-29T12:52:44.167Z,1.67
2022-07-29T12:55:14.387Z,1.75
2022-07-29T12:57:49.132Z,1.90
2022-07-29T13:00:19.344Z,2.00
2022-07-29T13:02:57.176Z,1.63
2022-07-29T13:05:35.645Z,1.98
2022-07-29T13:08:22.228Z,1.80
2022-07-29T13:10:58.202Z,1.70
2022-07-29T13:13:30.109Z,1.60
2022-07-29T13:16:09.698Z,1.70
2022-07-29T13:18:44.334Z,1.63
2022-07-29T13:21:13.637Z,1.60
2022-07-29T13:23:43.761Z,1.63
2022-07-29T13:26:13.984Z,1.58
2022-07-29T13:28:44.228Z,1.55
2022-07-29T13:31:13.053Z,1.90
2022-07-29T13:33:45.839Z,1.90
2022-07-29T13:36:14.769Z,1.27
2022-07-29T13:38:43.346Z,1.83
2022-07-29T13:41:13.432Z,1.52
2022-07-29T13:43:42.353Z,2.08
2022-07-29T13:46:13.175Z,1.55
2022-07-29T13:48:45.038Z,1.52
2022-07-29T13:51:18.061Z,1.50
2022-07-29T13:53:48.622Z,1.67
2022-07-29T13:56:18.631Z,1.80
2022-07-29T13:58:56.472Z,1.60
2022-07-29T14:01:29.806Z,1.50
2022-07-29T14:03:58.493Z,1.73
2022-07-29T14:06:37.323Z,1.48
2022-07-29T14:09:09.742Z,1.40
2022-07-29T14:11:44.538Z,1.48
2022-07-29T14:14:14.794Z,1.67
2022-07-29T14:16:56.174Z,1.60
2022-07-29T14:19:33.938Z,2.20
2022-07-29T14:22:14.762Z,1.90
2022-07-29T14:24:49.734Z,1.90
2022-07-29T14:27:37.751Z,1.83
2022-07-29T14:30:07.476Z,2.10
2022-07-29T14:32:36.325Z,2.13
2022-07-29T14:35:14.187Z,1.45
2022-07-29T14:37:48.631Z,2.00
2022-07-29T14:40:19.840Z,1.50
2022-07-29T14:42:52.946Z,1.70
2022-07-29T14:45:21.549Z,1.58
2022-07-29T14:47:51.124Z,1.48
2022-07-29T14:50:31.324Z,1.90
2022-07-29T14:53:00.795Z,1.83
2022-07-29T14:55:29.409Z,2.17
2022-07-29T14:58:08.649Z,1.75
2022-07-29T15:00:42.848Z,2.17
2022-07-29T15:03:11.667Z,2.00
2022-07-29T15:05:43.494Z,1.40
2022-07-29T15:08:18.110Z,1.60
2022-07-29T15:10:48.509Z,1.73
2022-07-29T15:13:18.329Z,2.03
2022-07-29T15:15:46.985Z,1.93
2022-07-29T15:18:15.595Z,1.90
2022-07-29T15:20:54.180Z,1.60
2022-07-29T15:23:26.731Z,2.00
2022-07-29T15:25:57.195Z,1.37
2022-07-29T15:28:29.906Z,1.90
2022-07-29T15:30:59.676Z,1.87
2022-07-29T15:33:31.175Z,1.90
2022-07-29T15:36:01.600Z,2.00
2022-07-29T15:38:30.110Z,1.90
2022-07-29T15:40:58.674Z,1.70
2022-07-29T15:43:27.163Z,1.63
2022-07-29T15:46:15.210Z,1.90
2022-07-29T15:48:43.873Z,1.60
2022-07-29T15:51:12.393Z,1.60
2022-07-29T15:53:40.992Z,1.70
2022-07-29T15:56:14.219Z,1.97
2022-07-29T15:58:42.667Z,1.53
2022-07-29T16:01:12.850Z,1.93
2022-07-29T16:03:46.215Z,1.57
2022-07-29T16:06:15.277Z,1.80
2022-07-29T16:08:46.804Z,2.10
2022-07-29T16:11:15.422Z,1.90
2022-07-29T16:13:43.917Z,1.90
2022-07-29T16:16:16.591Z,2.23
2022-07-29T16:18:52.803Z,2.10
2022-07-29T16:21:25.342Z,2.07
2022-07-29T16:23:55.987Z,1.90
2022-07-29T16:26:27.465Z,1.90
2022-07-29T16:28:59.755Z,2.07
2022-07-29T16:31:29.810Z,1.80
2022-07-29T16:34:00.151Z,4.13
2022-07-29T16:36:28.662Z,2.03
2022-07-29T16:38:57.227Z,2.00
2022-07-29T16:41:29.799Z,2.47
2022-07-29T16:44:02.265Z,2.00
2022-07-29T16:46:39.054Z,2.20
2022-07-29T16:49:10.079Z,2.10
2022-07-29T16:51:41.585Z,2.47
2022-07-29T16:54:14.128Z,2.13
2022-07-29T16:56:45.054Z,2.00
2022-07-29T16:59:13.639Z,2.10
2022-07-29T17:01:55.595Z,2.03
2022-07-29T17:04:31.336Z,2.00
2022-07-29T17:07:00.226Z,1.90
2022-07-29T17:09:29.734Z,1.90
2022-07-29T17:11:58.370Z,2.37
2022-07-29T17:14:31.000Z,1.90
2022-07-29T17:17:02.257Z,2.20
2022-07-29T17:19:31.402Z,2.17
2022-07-29T17:22:12.941Z,2.10
2022-07-29T17:24:45.645Z,1.97
2022-07-29T17:27:17.325Z,2.20
2022-07-29T17:29:51.214Z,2.37
2022-07-29T17:32:21.232Z,2.40
2022-07-29T17:37:36.721Z,2.20
2022-07-29T17:40:05.417Z,1.97
2022-07-29T17:42:34.058Z,2.20
2022-07-29T17:45:02.535Z,2.37
2022-07-29T17:47:32.488Z,2.70
2022-07-29T17:50:00.986Z,2.60
2022-07-29T17:52:29.474Z,2.73
2022-07-29T17:54:58.310Z,2.20
2022-07-29T17:57:26.825Z,2.63
2022-07-29T17:59:55.421Z,2.57
2022-07-29T18:02:26.680Z,2.30
2022-07-29T18:04:58.517Z,2.50
2022-07-29T18:07:29.510Z,2.70
2022-07-29T18:10:01.104Z,3.37
2022-07-29T18:12:29.687Z,2.53
2022-07-29T18:14:58.302Z,2.97
2022-07-29T18:17:52.707Z,2.20
2022-07-29T18:20:20.023Z,2.30
2022-07-29T18:22:53.953Z,2.40
2022-07-29T18:25:24.319Z,3.10
2022-07-29T18:27:55.269Z,2.97
2022-07-29T18:30:28.208Z,2.70
2022-07-29T18:33:19.749Z,2.77
2022-07-29T18:35:49.998Z,3.17
2022-07-29T18:38:18.611Z,2.93
2022-07-29T18:40:47.478Z,2.40
2022-07-29T18:43:19.084Z,3.00
2022-07-29T18:45:53.174Z,2.63
2022-07-29T18:48:21.653Z,2.80
2022-07-29T18:50:51.726Z,2.80
2022-07-29T18:53:26.067Z,2.53
2022-07-29T18:56:02.225Z,2.50
2022-07-29T18:58:32.670Z,2.70
2022-07-29T19:01:02.014Z,2.80
2022-07-29T19:03:32.951Z,2.83
2022-07-29T19:06:14.820Z,3.00
2022-07-29T19:08:51.650Z,2.90
2022-07-29T19:11:20.422Z,4.00
2022-07-29T19:13:51.933Z,3.03
2022-07-29T19:16:25.148Z,3.77
2022-07-29T19:18:54.083Z,2.80
2022-07-29T19:21:37.524Z,2.97
2022-07-29T19:24:12.327Z,3.40
2022-07-29T19:26:46.938Z,3.37
2022-07-29T19:29:18.495Z,2.93
2022-07-29T19:31:47.050Z,2.90
2022-07-29T19:34:42.587Z,3.23
2022-07-29T19:37:48.456Z,3.23
2022-07-29T19:40:19.187Z,2.43
2022-07-29T19:43:03.228Z,2.70
2022-07-29T19:46:02.109Z,3.10
2022-07-29T19:48:36.268Z,2.97
2022-07-29T19:51:12.412Z,2.90
2022-07-29T19:53:51.322Z,2.83
2022-07-29T19:56:38.067Z,3.40
2022-07-29T19:59:25.761Z,3.27
2022-07-29T20:02:06.944Z,3.00
2022-07-29T20:04:57.831Z,2.97
2022-07-29T20:07:27.325Z,3.67
2022-07-29T20:09:57.299Z,3.10
2022-07-29T20:12:38.271Z,3.00
2022-07-29T20:15:08.543Z,2.70
2022-07-29T20:17:41.614Z,3.20
2022-07-29T20:20:19.028Z,3.40
2022-07-29T20:22:50.647Z,3.27
2022-07-29T20:25:20.575Z,3.27
2022-07-29T20:27:54.849Z,3.10
2022-07-29T20:30:27.588Z,3.00
2022-07-29T20:32:57.921Z,3.27
2022-07-29T20:35:28.065Z,2.63
2022-07-29T20:37:56.769Z,2.83
2022-07-29T20:40:33.943Z,2.70
2022-07-29T20:43:03.388Z,2.57
2022-07-29T20:45:32.068Z,2.80
2022-07-29T20:48:01.783Z,3.07
2022-07-29T20:50:30.400Z,2.80
2022-07-29T20:52:58.878Z,3.00
2022-07-29T20:55:27.547Z,3.00
2022-07-29T20:57:58.920Z,3.30
2022-07-29T21:00:27.496Z,3.17
2022-07-29T21:02:59.052Z,2.70
2022-07-29T21:05:33.123Z,3.00
2022-07-29T21:08:01.792Z,3.00
2022-07-29T21:10:31.788Z,2.77
2022-07-29T21:13:04.659Z,3.03
2022-07-29T21:15:33.524Z,2.87
2022-07-29T21:18:02.446Z,2.90
2022-07-29T21:20:31.109Z,3.53
2022-07-29T21:23:00.342Z,3.40
2022-07-29T21:25:34.513Z,3.00
2022-07-29T21:28:23.745Z,3.33
2022-07-29T21:30:55.010Z,3.10
2022-07-29T21:33:25.213Z,2.87
2022-07-29T21:36:26.734Z,2.93
2022-07-29T21:38:54.938Z,3.33
2022-07-29T21:41:29.280Z,3.10
2022-07-29T21:43:59.621Z,3.10
2022-07-29T21:46:30.056Z,3.20
2022-07-29T21:49:07.174Z,3.30
2022-07-29T21:51:37.428Z,3.13
2022-07-29T21:54:06.140Z,3.40
2022-07-29T21:56:36.840Z,2.97
2022-07-29T21:59:09.848Z,3.20
2022-07-29T22:01:46.158Z,3.17
2022-07-29T22:04:14.821Z,3.30
2022-07-29T22:06:43.469Z,3.17
2022-07-29T22:09:13.925Z,3.07
2022-07-29T22:11:45.240Z,2.97
2022-07-29T22:14:15.427Z,3.17
2022-07-29T22:16:43.960Z,2.90
2022-07-29T22:19:12.447Z,2.90
2022-07-29T22:21:43.356Z,3.03
2022-07-29T22:24:11.996Z,2.83
2022-07-29T22:26:40.601Z,3.03
2022-07-29T22:29:11.856Z,2.80
2022-07-29T22:31:44.541Z,3.67
2022-07-29T22:34:13.490Z,3.50
2022-07-29T22:36:58.639Z,3.10
2022-07-29T22:39:27.386Z,3.20
2022-07-29T22:42:03.205Z,3.20
2022-07-29T22:44:33.740Z,3.00
2022-07-29T22:47:04.569Z,3.10
2022-07-29T22:49:42.040Z,3.00
2022-07-29T22:52:12.792Z,3.80
2022-07-29T22:54:45.191Z,2.90
2022-07-29T22:57:15.218Z,3.73
2022-07-29T22:59:44.002Z,3.40
2022-07-29T23:02:16.927Z,3.50
2022-07-29T23:04:45.463Z,3.10
2022-07-29T23:07:13.957Z,3.20
2022-07-29T23:09:50.288Z,3.37
2022-07-29T23:12:18.816Z,3.20
2022-07-29T23:14:47.565Z,2.90
2022-07-29T23:17:32.016Z,3.20
2022-07-29T23:20:14.870Z,3.20
2022-07-29T23:22:43.497Z,3.67
2022-07-29T23:25:12.175Z,3.30
2022-07-29T23:27:41.938Z,3.10
2022-07-29T23:30:10.991Z,2.47
2022-07-29T23:32:40.898Z,3.10
2022-07-29T23:35:10.224Z,3.33
2022-07-29T23:37:39.815Z,3.17
2022-07-29T23:40:13.990Z,3.07
2022-07-29T23:42:43.332Z,3.30
2022-07-29T23:45:16.210Z,3.17
2022-07-29T23:47:46.451Z,3.40
2022-07-29T23:50:17.419Z,3.23
2022-07-29T23:52:47.252Z,3.00
2022-07-29T23:55:38.075Z,3.30
2022-07-29T23:58:08.563Z,3.10
